createdAt,value
2019-02-16T00:09:22.109Z,99789.94
2019-02-16T00:14:33.702Z,99791.14
2019-02-16T00:19:38.884Z,99784.36
2019-02-16T00:25:01.503Z,99781.55
2019-02-16T00:35:57.081Z,99780.30
2019-02-16T00:41:02.313Z,99779.38
2019-02-16T00:52:02.579Z,99783.52
2019-02-16T01:02:30.656Z,99788.46
2019-02-16T01:07:35.840Z,99782.80
2019-02-16T01:12:52.466Z,99783.53
2019-02-16T01:17:58.082Z,99779.60
2019-02-16T01:28:20.389Z,99785.33
2019-02-16T01:33:51.232Z,99787.15
2019-02-16T01:38:56.421Z,99775.66
2019-02-16T01:44:39.784Z,99771.34
2019-02-16T01:49:56.505Z,99766.48
2019-02-16T02:00:19.265Z,99738.45
2019-02-16T02:27:35.114Z,99719.53
2019-02-16T02:38:15.895Z,99710.21
2019-02-16T02:43:21.115Z,99711.77
2019-02-16T02:48:26.356Z,99720.80
2019-02-16T03:04:18.260Z,99720.98
2019-02-16T03:09:23.439Z,99720.78
2019-02-16T03:19:45.683Z,99720.53
2019-02-16T03:25:09.897Z,99714.36
2019-02-16T03:30:51.453Z,99712.47
2019-02-16T03:36:34.742Z,99721.43
2019-02-16T03:41:39.985Z,99718.73
2019-02-16T03:46:50.796Z,99729.76
2019-02-16T03:51:55.987Z,99734.77
2019-02-16T03:57:01.178Z,99728.50
2019-02-16T04:02:06.379Z,99740.06
2019-02-16T04:07:11.654Z,99731.83
2019-02-16T04:12:16.842Z,99733.45
2019-02-16T04:17:41.010Z,99731.59
2019-02-16T04:28:03.110Z,99714.67
2019-02-16T04:33:20.167Z,99719.98
2019-02-16T04:38:25.391Z,99723.91
2019-02-16T04:43:30.590Z,99724.58
2019-02-16T04:48:35.780Z,99719.70
2019-02-16T04:59:10.785Z,99700.19
2019-02-16T05:04:35.035Z,99689.52
2019-02-16T05:09:40.227Z,99692.58
2019-02-16T05:20:21.567Z,99697.17
2019-02-16T05:25:26.834Z,99703.02
2019-02-16T05:30:32.416Z,99700.70
2019-02-16T05:35:49.210Z,99700.62
2019-02-16T05:51:47.782Z,99691.61
2019-02-16T05:56:52.974Z,99694.36
2019-02-16T06:02:56.625Z,99700.22
2019-02-16T06:13:50.698Z,99702.27
2019-02-16T06:18:55.893Z,99699.79
2019-02-16T06:29:18.230Z,99711.22
2019-02-16T06:34:23.422Z,99716.98
2019-02-16T06:39:28.736Z,99712.05
2019-02-16T06:55:44.315Z,99717.55
2019-02-16T07:01:08.595Z,99726.07
2019-02-16T07:06:19.573Z,99717.84
2019-02-16T07:11:31.860Z,99714.19
2019-02-16T07:17:15.095Z,99715.62
2019-02-16T07:22:39.345Z,99719.87
2019-02-16T07:28:03.571Z,99729.80
2019-02-16T07:38:26.373Z,99733.48
2019-02-16T07:44:09.836Z,99735.33
2019-02-16T07:49:19.942Z,99724.67
2019-02-16T07:55:03.118Z,99720.66
2019-02-16T08:06:04.436Z,99742.74
2019-02-16T08:11:28.613Z,99741.89
2019-02-16T08:16:58.937Z,99739.73
2019-02-16T08:22:23.152Z,99732.68
2019-02-16T08:27:47.257Z,99729.73
2019-02-16T08:33:00.801Z,99731.63
2019-02-16T08:38:25.156Z,99725.92
2019-02-16T08:43:49.889Z,99721.92
2019-02-16T08:54:27.635Z,99720.31
2019-02-16T08:59:51.898Z,99712.77
2019-02-16T09:05:16.022Z,99718.27
2019-02-16T09:10:40.140Z,99724.22
2019-02-16T09:16:23.344Z,99714.62
2019-02-16T09:27:31.563Z,99702.05
2019-02-16T09:32:55.801Z,99690.57
2019-02-16T09:38:07.755Z,99682.61
2019-02-16T09:43:32.203Z,99691.73
2019-02-16T09:49:08.179Z,99695.57
2019-02-16T09:54:36.421Z,99698.68
2019-02-16T09:59:59.533Z,99685.27
2019-02-16T10:10:58.661Z,99684.19
2019-02-16T10:16:22.757Z,99683.28
2019-02-16T10:21:47.117Z,99678.70
2019-02-16T10:32:52.210Z,99675.74
2019-02-16T10:38:16.360Z,99668.86
2019-02-16T10:44:00.881Z,99669.45
2019-02-16T10:49:37.053Z,99652.09
2019-02-16T10:55:01.150Z,99654.73
2019-02-16T11:00:50.484Z,99632.50
2019-02-16T11:06:14.692Z,99632.50
2019-02-16T11:11:50.034Z,99647.48
2019-02-16T11:17:14.243Z,99637.03
2019-02-16T11:22:38.358Z,99634.39
2019-02-16T11:27:52.406Z,99635.95
2019-02-16T11:33:35.839Z,99632.55
2019-02-16T11:38:47.450Z,99621.69
2019-02-16T11:44:30.629Z,99614.64
2019-02-16T11:49:57.563Z,99605.64
2019-02-16T11:55:33.672Z,99602.44
2019-02-16T12:00:57.856Z,99603.13
2019-02-16T12:06:27.167Z,99602.22
2019-02-16T12:11:51.280Z,99596.25
2019-02-16T12:22:39.458Z,99591.18
2019-02-16T12:28:22.638Z,99582.24
2019-02-16T12:34:05.792Z,99585.78
2019-02-16T12:39:29.916Z,99577.42
2019-02-16T12:44:54.385Z,99578.28
2019-02-16T12:50:18.526Z,99563.42
2019-02-16T12:55:42.672Z,99552.23
2019-02-16T13:01:04.384Z,99551.59
2019-02-16T13:06:28.488Z,99550.28
2019-02-16T13:11:52.747Z,99544.00
2019-02-16T13:17:05.194Z,99542.60
2019-02-16T13:28:26.062Z,99536.96
2019-02-16T13:34:10.887Z,99528.69
2019-02-16T13:39:53.975Z,99526.28
2019-02-16T13:45:37.152Z,99519.98
2019-02-16T13:51:01.689Z,99521.33
2019-02-16T13:56:25.864Z,99518.70
2019-02-16T14:01:50.062Z,99521.23
2019-02-16T14:07:33.202Z,99518.91
2019-02-16T14:13:16.279Z,99516.92
2019-02-16T14:18:40.692Z,99514.96
2019-02-16T14:23:45.973Z,99510.88
2019-02-16T14:29:10.229Z,99507.26
2019-02-16T14:34:15.423Z,99503.33
2019-02-16T14:55:29.716Z,99480.39
2019-02-16T15:00:54.035Z,99478.53
2019-02-16T15:05:59.241Z,99482.03
2019-02-16T15:11:23.497Z,99483.64
2019-02-16T15:16:28.696Z,99479.01
2019-02-16T15:21:53.013Z,99478.91
2019-02-16T15:26:58.220Z,99477.97
2019-02-16T15:43:09.006Z,99477.80
2019-02-16T15:48:33.279Z,99474.00
2019-02-16T15:53:38.546Z,99471.07
2019-02-16T15:58:55.313Z,99471.89
2019-02-16T16:04:00.819Z,99468.22
2019-02-16T16:09:44.339Z,99455.77
2019-02-16T16:15:08.455Z,99462.00
2019-02-16T16:20:31.658Z,99461.38
2019-02-16T16:31:26.925Z,99462.73
2019-02-16T16:37:10.372Z,99464.86
2019-02-16T16:42:34.769Z,99467.22
2019-02-16T16:47:59.257Z,99467.34
2019-02-16T16:53:23.377Z,99466.97
2019-02-16T17:04:03.918Z,99462.99
2019-02-16T17:15:16.460Z,99478.98
2019-02-16T17:20:40.962Z,99493.62
2019-02-16T17:26:05.202Z,99495.22
2019-02-16T17:31:48.454Z,99508.66
2019-02-16T17:37:27.456Z,99506.50
2019-02-16T17:42:51.655Z,99507.73
2019-02-16T17:48:16.101Z,99506.59
2019-02-16T17:53:30.258Z,99508.89
2019-02-16T17:59:00.798Z,99511.14
2019-02-16T18:04:36.606Z,99522.28
2019-02-16T18:10:09.537Z,99521.95
2019-02-16T18:15:33.646Z,99527.97
2019-02-16T18:20:58.049Z,99524.86
2019-02-16T18:26:22.228Z,99530.11
2019-02-16T18:31:46.454Z,99529.02
2019-02-16T18:43:26.674Z,99525.95
2019-02-16T18:49:09.943Z,99525.55
2019-02-16T18:54:34.211Z,99515.65
2019-02-16T18:59:50.380Z,99513.41
2019-02-16T19:05:15.063Z,99518.84
2019-02-16T19:10:58.332Z,99524.56
2019-02-16T19:16:22.477Z,99530.63
2019-02-16T19:22:07.317Z,99533.14
2019-02-16T19:28:02.620Z,99521.68
2019-02-16T19:33:26.733Z,99519.59
2019-02-16T19:38:50.915Z,99530.67
2019-02-16T19:49:52.965Z,99524.27
2019-02-16T19:55:02.218Z,99532.65
2019-02-16T20:00:37.572Z,99541.55
2019-02-16T20:06:16.817Z,99535.73
2019-02-16T20:11:42.564Z,99535.07
2019-02-16T20:17:07.017Z,99530.63
2019-02-16T20:22:31.299Z,99523.95
2019-02-16T20:28:14.523Z,99536.23
2019-02-16T20:33:57.786Z,99540.48
2019-02-16T20:39:41.011Z,99533.89
2019-02-16T20:45:05.141Z,99538.73
2019-02-16T20:50:29.364Z,99532.66
2019-02-16T20:56:05.472Z,99537.66
2019-02-16T21:01:29.973Z,99535.50
2019-02-16T21:06:54.225Z,99540.81
2019-02-16T21:12:37.438Z,99551.37
2019-02-16T21:18:01.658Z,99548.98
2019-02-16T21:23:25.826Z,99537.61
2019-02-16T21:28:50.008Z,99541.40
2019-02-16T21:34:14.407Z,99544.81
2019-02-16T21:45:34.720Z,99537.56
2019-02-16T21:51:18.174Z,99540.67
2019-02-16T21:56:42.410Z,99539.80
2019-02-16T22:02:25.549Z,99539.47
2019-02-16T22:08:01.989Z,99537.85
2019-02-16T22:13:07.741Z,99538.96
2019-02-16T22:18:13.317Z,99529.02
2019-02-16T22:23:19.033Z,99528.66
2019-02-16T22:28:43.597Z,99527.88
2019-02-16T22:34:08.080Z,99524.83
2019-02-16T22:44:43.064Z,99529.04
2019-02-16T22:49:48.853Z,99518.58
2019-02-16T23:00:48.928Z,99522.55
2019-02-16T23:06:13.234Z,99524.09
2019-02-16T23:11:30.157Z,99523.25
2019-02-16T23:27:28.552Z,99521.94
2019-02-16T23:32:33.783Z,99522.64
2019-02-16T23:48:13.289Z,99520.09
2019-02-16T23:53:29.601Z,99519.88
2019-02-16T23:58:35.923Z,99518.97
